Time;durP1;ratioP1;P1;durP2;ratioP2;P2;SDS_P1;SDS_P2;PMS_P1;PMS_P2;Temp;Humidity;BMP_temperature;BMP_pressure;BME280_temperature;BME280_humidity;BME280_pressure;Samples;Min_cycle;Max_cycle;Signal;HPM_P1;HPM_P2
2022/04/16 00:01:38;;;;;;;16.92;12.25;;;;;;;;;;5069041;28;20048;-63
2022/04/16 00:04:04;;;;;;;18.23;11.93;;;;;;;;;;5046309;28;20049;-63
2022/04/16 00:06:30;;;;;;;25.58;13.82;;;;;;;;;;5068462;28;20121;-63
2022/04/16 00:08:57;;;;;;;16.52;11.40;;;;;;;;;;5068584;28;20045;-63
2022/04/16 00:11:23;;;;;;;17.25;11.55;;;;;;;;;;5067343;28;20055;-64
2022/04/16 00:13:50;;;;;;;17.33;12.27;;;;;;;;;;5050829;28;20044;-64
2022/04/16 00:16:17;;;;;;;17.15;11.73;;;;;;;;;;5069037;28;20044;-64
2022/04/16 00:18:43;;;;;;;17.83;12.32;;;;;;;;;;5048642;28;20053;-63
2022/04/16 00:21:12;;;;;;;18.65;11.70;;;;;;;;;;5047036;28;20084;-63
2022/04/16 00:23:41;;;;;;;25.08;12.68;;;;;;;;;;5033163;28;20427;-63
2022/04/16 00:26:07;;;;;;;15.57;11.60;;;;;;;;;;5067682;28;20495;-63
2022/04/16 00:28:35;;;;;;;21.08;12.90;;;;;;;;;;5046622;28;20044;-63
2022/04/16 00:31:02;;;;;;;18.08;11.90;;;;;;;;;;5045784;28;20106;-63
2022/04/16 00:33:28;;;;;;;18.67;12.60;;;;;;;;;;5043988;28;20080;-63
2022/04/16 00:35:54;;;;;;;17.63;11.95;;;;;;;;;;5065544;28;20048;-63
2022/04/16 00:38:21;;;;;;;17.02;11.50;;;;;;;;;;5064384;28;20381;-64
2022/04/16 00:40:47;;;;;;;19.23;12.23;;;;;;;;;;5065492;28;20040;-63
2022/04/16 00:43:20;;;;;;;19.88;12.05;;;;;;;;;;5045550;28;20121;-63
2022/04/16 00:45:47;;;;;;;16.10;11.90;;;;;;;;;;5067945;28;20041;-64
2022/04/16 00:48:13;;;;;;;22.38;13.48;;;;;;;;;;5067789;28;20081;-64
2022/04/16 00:50:40;;;;;;;20.05;13.25;;;;;;;;;;5067637;28;20053;-63
2022/04/16 00:53:06;;;;;;;20.30;12.38;;;;;;;;;;5049540;28;20052;-63
2022/04/16 00:55:37;;;;;;;16.30;12.30;;;;;;;;;;5032469;28;20044;-64
2022/04/16 00:58:03;;;;;;;18.50;12.85;;;;;;;;;;5048709;28;20128;-64
2022/04/16 01:00:29;;;;;;;18.20;12.65;;;;;;;;;;5067731;28;20044;-64
2022/04/16 01:02:56;;;;;;;18.63;12.65;;;;;;;;;;5067191;28;20046;-63
2022/04/16 01:05:23;;;;;;;18.50;13.68;;;;;;;;;;5068330;28;20037;-64
2022/04/16 01:07:53;;;;;;;23.17;14.23;;;;;;;;;;5064494;28;20033;-63
2022/04/16 01:10:20;;;;;;;19.20;13.90;;;;;;;;;;5068118;28;20148;-63
2022/04/16 01:12:46;;;;;;;20.63;14.43;;;;;;;;;;5067916;28;20070;-63
2022/04/16 01:15:13;;;;;;;20.73;14.88;;;;;;;;;;5066988;28;20043;-63
2022/04/16 01:17:39;;;;;;;24.38;14.55;;;;;;;;;;5047522;28;20056;-63
2022/04/16 01:20:06;;;;;;;22.55;14.82;;;;;;;;;;5046613;28;20085;-63
2022/04/16 01:22:32;;;;;;;23.52;15.95;;;;;;;;;;5067097;28;20062;-64
2022/04/16 01:25:00;;;;;;;23.42;16.52;;;;;;;;;;5030298;28;20128;-63
2022/04/16 01:27:26;;;;;;;31.08;16.75;;;;;;;;;;5068595;28;20119;-64
2022/04/16 01:29:53;;;;;;;26.30;16.67;;;;;;;;;;5044780;28;20056;-63
2022/04/16 01:32:20;;;;;;;24.48;17.85;;;;;;;;;;5068098;28;20041;-63
2022/04/16 01:34:46;;;;;;;23.63;16.58;;;;;;;;;;5066833;28;20040;-64
2022/04/16 01:37:12;;;;;;;23.35;15.98;;;;;;;;;;5066763;28;20071;-63
2022/04/16 01:39:39;;;;;;;23.15;16.10;;;;;;;;;;5065387;28;20045;-63
2022/04/16 01:42:05;;;;;;;24.88;16.42;;;;;;;;;;5066167;28;20391;-63
2022/04/16 01:44:33;;;;;;;23.38;16.65;;;;;;;;;;5062709;28;20107;-63
2022/04/16 01:46:59;;;;;;;23.02;16.52;;;;;;;;;;5062534;28;20048;-63
2022/04/16 01:49:26;;;;;;;22.60;16.25;;;;;;;;;;5063696;28;20066;-64
2022/04/16 01:51:53;;;;;;;25.52;18.02;;;;;;;;;;5068529;28;20119;-63
2022/04/16 01:54:19;;;;;;;32.58;18.65;;;;;;;;;;5047005;28;20053;-63
2022/04/16 01:56:46;;;;;;;28.88;18.85;;;;;;;;;;5071922;28;20040;-63
2022/04/16 01:59:12;;;;;;;25.83;18.42;;;;;;;;;;5071130;28;20059;-63
2022/04/16 02:01:38;;;;;;;24.67;17.17;;;;;;;;;;5070975;28;20059;-64
2022/04/16 02:04:04;;;;;;;29.50;18.85;;;;;;;;;;5046236;28;20044;-63
2022/04/16 02:06:30;;;;;;;25.85;18.00;;;;;;;;;;5071486;28;20422;-64
2022/04/16 02:08:56;;;;;;;26.77;18.35;;;;;;;;;;5071689;28;20093;-63
2022/04/16 02:11:23;;;;;;;29.60;17.92;;;;;;;;;;5070582;28;20139;-63
2022/04/16 02:13:49;;;;;;;25.20;18.23;;;;;;;;;;5053022;28;20041;-63
2022/04/16 02:16:15;;;;;;;26.58;18.73;;;;;;;;;;5071075;28;20051;-63
2022/04/16 02:18:41;;;;;;;23.58;17.30;;;;;;;;;;5046234;28;20036;-64
2022/04/16 02:21:10;;;;;;;26.17;17.73;;;;;;;;;;5071452;28;20048;-63
2022/04/16 02:23:36;;;;;;;24.98;17.17;;;;;;;;;;5070160;28;20049;-63
2022/04/16 02:26:07;;;;;;;25.63;18.88;;;;;;;;;;5068322;28;20051;-63
2022/04/16 02:28:34;;;;;;;27.73;17.80;;;;;;;;;;5069981;28;20052;-63
2022/04/16 02:31:00;;;;;;;28.50;18.23;;;;;;;;;;5071520;28;20036;-63
2022/04/16 02:33:27;;;;;;;26.17;18.77;;;;;;;;;;5069874;28;20048;-63
2022/04/16 02:35:53;;;;;;;28.45;18.35;;;;;;;;;;5049826;28;20135;-64
2022/04/16 02:38:19;;;;;;;28.20;19.08;;;;;;;;;;5051872;28;20048;-63
2022/04/16 02:40:47;;;;;;;25.63;18.02;;;;;;;;;;5070122;28;21859;-63
2022/04/16 02:43:13;;;;;;;26.15;18.05;;;;;;;;;;5069902;28;20032;-63
2022/04/16 02:48:24;;;;;;;26.25;18.30;;;;;;;;;;5051354;28;20539;-63
2022/04/16 02:50:52;;;;;;;27.10;18.88;;;;;;;;;;5046908;28;20041;-64
2022/04/16 02:53:19;;;;;;;30.05;19.40;;;;;;;;;;5049918;28;20052;-63
2022/04/16 02:55:46;;;;;;;30.80;19.20;;;;;;;;;;5064927;28;20098;-63
2022/04/16 02:58:13;;;;;;;27.42;18.73;;;;;;;;;;5051980;28;20049;-63
2022/04/16 03:00:40;;;;;;;29.98;19.85;;;;;;;;;;5069472;28;20081;-63
2022/04/16 03:03:08;;;;;;;32.22;20.90;;;;;;;;;;5050092;28;20392;-63
2022/04/16 03:05:35;;;;;;;27.13;18.67;;;;;;;;;;5070465;28;20072;-63
2022/04/16 03:08:01;;;;;;;27.00;19.50;;;;;;;;;;5052066;28;20396;-64
2022/04/16 03:10:29;;;;;;;29.88;19.52;;;;;;;;;;5069308;28;20048;-63
2022/04/16 03:12:55;;;;;;;35.40;21.27;;;;;;;;;;5050049;28;20373;-63
2022/04/16 03:18:07;;;;;;;28.50;19.77;;;;;;;;;;5070208;28;20376;-63
2022/04/16 03:20:33;;;;;;;32.33;19.95;;;;;;;;;;5070120;28;20048;-63
2022/04/16 03:23:00;;;;;;;32.30;20.23;;;;;;;;;;5048921;28;20051;-63
2022/04/16 03:25:27;;;;;;;34.50;21.75;;;;;;;;;;5049475;28;20040;-63
2022/04/16 03:27:54;;;;;;;30.30;18.50;;;;;;;;;;5050544;28;20400;-63
2022/04/16 03:30:20;;;;;;;31.52;19.10;;;;;;;;;;5051648;28;20072;-64
2022/04/16 03:32:47;;;;;;;27.27;17.85;;;;;;;;;;5051300;28;20052;-63
2022/04/16 03:35:14;;;;;;;25.58;19.33;;;;;;;;;;5039802;28;20049;-63
2022/04/16 03:37:40;;;;;;;25.02;17.95;;;;;;;;;;5048417;28;20056;-63
2022/04/16 03:40:06;;;;;;;25.58;17.55;;;;;;;;;;5047532;28;20142;-63
2022/04/16 03:42:33;;;;;;;24.98;17.40;;;;;;;;;;5048659;28;20388;-63
2022/04/16 03:45:00;;;;;;;29.70;19.65;;;;;;;;;;5047078;28;20036;-63
2022/04/16 03:47:27;;;;;;;27.13;17.83;;;;;;;;;;5048760;28;20170;-63
2022/04/16 03:49:54;;;;;;;29.42;18.02;;;;;;;;;;5068487;28;20036;-64
2022/04/16 03:52:20;;;;;;;27.02;19.10;;;;;;;;;;5069255;28;20464;-63
2022/04/16 04:00:17;;;;;;;29.65;21.50;;;;;;;;;;5047140;28;20714;-63
2022/04/16 04:02:43;;;;;;;33.75;21.52;;;;;;;;;;5046051;28;20373;-63
2022/04/16 04:05:09;;;;;;;34.92;21.45;;;;;;;;;;5048072;28;20115;-63
2022/04/16 04:07:36;;;;;;;30.38;22.70;;;;;;;;;;5065326;28;20037;-63
2022/04/16 04:10:03;;;;;;;32.70;22.60;;;;;;;;;;5069409;28;20472;-63
2022/04/16 04:12:29;;;;;;;34.38;21.92;;;;;;;;;;5068738;28;20047;-63
2022/04/16 04:14:55;;;;;;;33.33;22.13;;;;;;;;;;5068530;28;20039;-63
2022/04/16 04:17:21;;;;;;;33.28;24.35;;;;;;;;;;5067715;28;20066;-63
2022/04/16 04:19:48;;;;;;;35.25;23.73;;;;;;;;;;5067834;28;20063;-63
2022/04/16 04:22:16;;;;;;;35.50;23.33;;;;;;;;;;5050346;28;20052;-63
2022/04/16 04:24:43;;;;;;;32.47;23.38;;;;;;;;;;5068431;28;20536;-64
2022/04/16 04:27:09;;;;;;;37.15;24.10;;;;;;;;;;5047837;28;20071;-63
2022/04/16 04:29:36;;;;;;;35.50;24.85;;;;;;;;;;5068134;28;20525;-63
2022/04/16 04:32:02;;;;;;;34.22;23.67;;;;;;;;;;5050448;28;20121;-64
2022/04/16 04:34:28;;;;;;;38.40;25.05;;;;;;;;;;5069345;28;20379;-63
2022/04/16 04:36:54;;;;;;;36.03;23.08;;;;;;;;;;5045934;28;20059;-63
2022/04/16 04:39:20;;;;;;;37.25;24.45;;;;;;;;;;5045538;28;20135;-63
2022/04/16 04:41:47;;;;;;;37.00;23.33;;;;;;;;;;5048963;28;20037;-63
2022/04/16 04:44:13;;;;;;;34.28;24.13;;;;;;;;;;5049910;28;20491;-63
2022/04/16 04:46:40;;;;;;;35.50;23.90;;;;;;;;;;5068143;28;20136;-63
2022/04/16 04:49:12;;;;;;;32.53;22.85;;;;;;;;;;5067805;28;20117;-63
2022/04/16 04:51:39;;;;;;;31.42;21.70;;;;;;;;;;5047900;28;20493;-63
2022/04/16 04:54:06;;;;;;;37.67;23.45;;;;;;;;;;5067017;28;20051;-63
2022/04/16 04:56:32;;;;;;;34.47;23.50;;;;;;;;;;5031044;28;20549;-64
2022/04/16 04:58:58;;;;;;;36.38;23.55;;;;;;;;;;5065039;28;20070;-64
2022/04/16 05:01:24;;;;;;;34.08;23.88;;;;;;;;;;5048862;28;20049;-63
2022/04/16 05:03:51;;;;;;;33.15;24.00;;;;;;;;;;5067015;28;20043;-63
2022/04/16 05:06:17;;;;;;;35.50;24.45;;;;;;;;;;5044672;28;20041;-63
2022/04/16 05:08:43;;;;;;;35.53;25.23;;;;;;;;;;5066811;28;20377;-64
2022/04/16 05:11:10;;;;;;;38.90;25.45;;;;;;;;;;5065180;28;20035;-63
2022/04/16 05:13:36;;;;;;;38.00;26.00;;;;;;;;;;5067865;28;20052;-63
2022/04/16 05:16:02;;;;;;;35.35;25.77;;;;;;;;;;5068096;28;20037;-63
2022/04/16 05:18:28;;;;;;;36.35;25.77;;;;;;;;;;5067551;28;20063;-63
2022/04/16 05:20:55;;;;;;;37.58;25.67;;;;;;;;;;5066668;28;20119;-63
2022/04/16 05:23:21;;;;;;;39.53;25.17;;;;;;;;;;5067514;28;20036;-63
2022/04/16 05:25:48;;;;;;;40.90;26.70;;;;;;;;;;5065465;28;20048;-63
2022/04/16 05:28:14;;;;;;;37.03;26.23;;;;;;;;;;5067174;28;20834;-63
2022/04/16 05:30:48;;;;;;;36.63;26.23;;;;;;;;;;5047469;28;20106;-64
2022/04/16 05:34:18;;;;;;;41.08;28.98;;;;;;;;;;5047655;28;20120;-62
2022/04/16 05:36:03;;;;;;;42.17;27.48;;;;;;;;;;5065880;28;20123;-62
2022/04/16 05:38:29;;;;;;;45.60;30.17;;;;;;;;;;5066747;28;20065;-63
2022/04/16 05:40:55;;;;;;;47.17;31.60;;;;;;;;;;5045990;28;20055;-64
2022/04/16 05:43:22;;;;;;;49.20;32.38;;;;;;;;;;5066634;28;20086;-63
2022/04/16 05:45:48;;;;;;;48.92;33.13;;;;;;;;;;5067915;28;20120;-63
2022/04/16 05:48:14;;;;;;;53.15;33.47;;;;;;;;;;5066416;28;20092;-64
2022/04/16 05:50:41;;;;;;;51.85;34.60;;;;;;;;;;5045009;28;20056;-64
2022/04/16 05:53:09;;;;;;;49.63;33.92;;;;;;;;;;5065879;28;20041;-64
2022/04/16 05:55:35;;;;;;;50.97;33.67;;;;;;;;;;5066314;28;20040;-64
2022/04/16 05:58:02;;;;;;;49.90;36.00;;;;;;;;;;5040989;28;20037;-64
2022/04/16 06:00:28;;;;;;;52.22;35.58;;;;;;;;;;5066519;28;20399;-63
2022/04/16 06:02:56;;;;;;;52.55;37.55;;;;;;;;;;5065390;28;20047;-64
2022/04/16 06:05:22;;;;;;;55.60;36.35;;;;;;;;;;5065244;28;20460;-64
2022/04/16 06:07:49;;;;;;;53.78;36.63;;;;;;;;;;5047303;28;20106;-64
2022/04/16 06:10:15;;;;;;;53.95;35.97;;;;;;;;;;5042797;28;20052;-63
2022/04/16 06:12:41;;;;;;;53.28;35.65;;;;;;;;;;5046041;28;20094;-64
2022/04/16 06:15:08;;;;;;;53.90;36.38;;;;;;;;;;5062505;28;20094;-64
2022/04/16 06:17:34;;;;;;;49.83;34.95;;;;;;;;;;5040588;28;20056;-64
2022/04/16 06:20:00;;;;;;;50.80;36.45;;;;;;;;;;5066001;28;20072;-63
2022/04/16 06:22:27;;;;;;;52.20;35.88;;;;;;;;;;5066421;28;20405;-63
2022/04/16 06:24:53;;;;;;;49.92;35.55;;;;;;;;;;5063934;28;20071;-69
2022/04/16 06:27:19;;;;;;;50.72;35.45;;;;;;;;;;5066503;28;20036;-62
2022/04/16 06:29:45;;;;;;;48.15;34.60;;;;;;;;;;5067640;28;20032;-64
2022/04/16 06:32:11;;;;;;;47.75;32.83;;;;;;;;;;5062619;28;20091;-64
2022/04/16 06:34:37;;;;;;;51.13;33.65;;;;;;;;;;5066196;28;20388;-64
2022/04/16 06:37:04;;;;;;;49.55;34.40;;;;;;;;;;5048570;28;20642;-64
2022/04/16 06:39:31;;;;;;;44.35;32.15;;;;;;;;;;5069851;28;20559;-64
2022/04/16 06:41:57;;;;;;;48.00;31.65;;;;;;;;;;5050108;28;20056;-65
2022/04/16 06:44:23;;;;;;;47.97;34.05;;;;;;;;;;5070628;28;20072;-64
2022/04/16 06:46:50;;;;;;;48.58;33.72;;;;;;;;;;5048898;28;20098;-64
2022/04/16 06:49:17;;;;;;;35.78;25.13;;;;;;;;;;5071755;28;20392;-65
2022/04/16 06:51:43;;;;;;;36.90;24.05;;;;;;;;;;5070989;28;20414;-64
2022/04/16 06:54:09;;;;;;;32.05;23.35;;;;;;;;;;5069257;28;20181;-64
2022/04/16 06:56:36;;;;;;;34.40;23.20;;;;;;;;;;5070195;28;20037;-64
2022/04/16 06:59:02;;;;;;;32.90;23.17;;;;;;;;;;5070186;28;20094;-64
2022/04/16 07:01:28;;;;;;;32.38;23.77;;;;;;;;;;5069514;28;20063;-64
2022/04/16 07:03:54;;;;;;;34.58;23.50;;;;;;;;;;5068794;28;20043;-64
2022/04/16 07:06:20;;;;;;;31.25;21.38;;;;;;;;;;5070281;28;20070;-65
2022/04/16 07:08:46;;;;;;;30.05;22.17;;;;;;;;;;5069892;28;20158;-65
2022/04/16 07:11:13;;;;;;;33.03;21.90;;;;;;;;;;5052357;28;20044;-65
2022/04/16 07:13:39;;;;;;;28.33;19.70;;;;;;;;;;5067730;28;20044;-64
2022/04/16 07:16:05;;;;;;;28.58;20.48;;;;;;;;;;5069749;28;20055;-64
2022/04/16 07:18:31;;;;;;;29.33;19.52;;;;;;;;;;5068573;28;20076;-64
2022/04/16 07:20:57;;;;;;;31.23;21.73;;;;;;;;;;5065466;28;20106;-64
2022/04/16 07:23:23;;;;;;;32.13;21.10;;;;;;;;;;5070301;28;20044;-64
2022/04/16 07:25:50;;;;;;;29.55;19.77;;;;;;;;;;5073254;28;20143;-64
2022/04/16 07:28:21;;;;;;;25.75;17.45;;;;;;;;;;5072538;28;20059;-64
2022/04/16 07:30:48;;;;;;;24.92;14.85;;;;;;;;;;5073256;28;20445;-64
2022/04/16 07:33:15;;;;;;;21.17;13.70;;;;;;;;;;5049550;28;20083;-65
2022/04/16 07:35:41;;;;;;;24.33;14.98;;;;;;;;;;5070564;28;20462;-64
2022/04/16 07:38:07;;;;;;;24.70;15.02;;;;;;;;;;5072884;28;20095;-64
2022/04/16 07:40:34;;;;;;;23.10;15.80;;;;;;;;;;5055012;28;20094;-64
2022/04/16 07:43:01;;;;;;;22.42;15.70;;;;;;;;;;5071988;28;20052;-64
2022/04/16 07:45:28;;;;;;;22.88;15.32;;;;;;;;;;5072035;28;20052;-64
2022/04/16 07:47:54;;;;;;;24.02;14.75;;;;;;;;;;5073105;28;20051;-64
2022/04/16 07:50:20;;;;;;;21.50;14.45;;;;;;;;;;5071244;28;20060;-64
2022/04/16 07:52:47;;;;;;;23.40;15.27;;;;;;;;;;5072766;28;20044;-65
2022/04/16 07:55:13;;;;;;;20.70;13.23;;;;;;;;;;5053644;28;20045;-65
2022/04/16 07:57:39;;;;;;;24.25;14.35;;;;;;;;;;5054109;28;20392;-65
2022/04/16 08:00:07;;;;;;;20.35;13.25;;;;;;;;;;5055001;28;20049;-65
2022/04/16 08:02:33;;;;;;;21.77;13.32;;;;;;;;;;5072126;28;20049;-65
2022/04/16 08:04:59;;;;;;;21.75;14.32;;;;;;;;;;5071067;28;20036;-65
2022/04/16 08:07:25;;;;;;;22.90;14.23;;;;;;;;;;5054381;28;20042;-65
2022/04/16 08:09:52;;;;;;;20.27;13.57;;;;;;;;;;5071947;28;20120;-65
2022/04/16 08:12:18;;;;;;;25.58;14.90;;;;;;;;;;5054652;28;20396;-65
2022/04/16 08:14:44;;;;;;;19.45;12.65;;;;;;;;;;5071854;28;20150;-65
2022/04/16 08:17:11;;;;;;;20.38;12.52;;;;;;;;;;5070675;28;20044;-65
2022/04/16 08:19:37;;;;;;;18.60;12.60;;;;;;;;;;5072361;28;20040;-65
2022/04/16 08:22:07;;;;;;;20.42;12.43;;;;;;;;;;5072044;28;20152;-65
2022/04/16 08:27:04;;;;;;;18.75;13.15;;;;;;;;;;5050584;28;20119;-65
2022/04/16 08:29:30;;;;;;;19.48;12.93;;;;;;;;;;5069751;28;20548;-64
2022/04/16 08:31:56;;;;;;;21.98;13.20;;;;;;;;;;5068635;28;20098;-64
2022/04/16 08:34:22;;;;;;;23.75;12.85;;;;;;;;;;5050609;28;20143;-66
2022/04/16 08:36:48;;;;;;;21.35;10.75;;;;;;;;;;5064675;28;20091;-65
2022/04/16 08:39:15;;;;;;;18.65;12.00;;;;;;;;;;5066819;28;20052;-65
2022/04/16 08:41:41;;;;;;;16.58;11.48;;;;;;;;;;5068990;28;20162;-65
2022/04/16 08:44:08;;;;;;;20.63;11.70;;;;;;;;;;5068409;28;20044;-65
2022/04/16 08:46:35;;;;;;;15.60;10.43;;;;;;;;;;5065424;28;20463;-65
2022/04/16 08:49:01;;;;;;;15.23;9.55;;;;;;;;;;5049964;28;20040;-65
2022/04/16 08:51:28;;;;;;;13.15;8.00;;;;;;;;;;5068919;28;20086;-65
2022/04/16 08:53:54;;;;;;;13.50;8.32;;;;;;;;;;5066939;28;20068;-65
2022/04/16 08:56:21;;;;;;;13.68;7.80;;;;;;;;;;5068129;28;20036;-65
2022/04/16 08:58:47;;;;;;;11.63;7.75;;;;;;;;;;5042195;28;20323;-64
2022/04/16 09:01:13;;;;;;;11.98;6.95;;;;;;;;;;5048759;28;20048;-64
2022/04/16 09:03:40;;;;;;;12.63;8.48;;;;;;;;;;5039860;28;20082;-64
2022/04/16 09:06:07;;;;;;;12.63;8.10;;;;;;;;;;5045329;28;20071;-65
2022/04/16 09:08:34;;;;;;;14.93;7.90;;;;;;;;;;5048876;28;20358;-65
2022/04/16 09:11:05;;;;;;;11.27;6.60;;;;;;;;;;5067992;28;20044;-65
2022/04/16 09:13:32;;;;;;;13.18;7.68;;;;;;;;;;5067014;28;20444;-65
2022/04/16 09:16:06;;;;;;;15.00;7.10;;;;;;;;;;5068503;28;20047;-65
2022/04/16 09:18:44;;;;;;;10.20;6.25;;;;;;;;;;5067084;28;20446;-65
2022/04/16 09:21:12;;;;;;;9.18;5.53;;;;;;;;;;5067124;28;20099;-65
2022/04/16 09:23:44;;;;;;;10.18;4.72;;;;;;;;;;5062325;28;20114;-65
2022/04/16 09:26:10;;;;;;;7.78;4.68;;;;;;;;;;5066823;28;20106;-65
2022/04/16 09:28:44;;;;;;;8.98;5.07;;;;;;;;;;5045036;28;20052;-65
2022/04/16 09:31:10;;;;;;;7.20;4.28;;;;;;;;;;5065404;28;20149;-65
2022/04/16 09:33:37;;;;;;;7.72;4.75;;;;;;;;;;5066802;28;20065;-65
2022/04/16 09:36:03;;;;;;;8.73;4.68;;;;;;;;;;5044686;28;20049;-65
2022/04/16 09:38:37;;;;;;;7.70;4.60;;;;;;;;;;5040410;28;20044;-65
2022/04/16 09:41:03;;;;;;;;;;;;;;;;;;5036435;28;20523;-65
2022/04/16 09:43:36;;;;;;;10.25;5.47;;;;;;;;;;5042113;28;20380;-65
2022/04/16 09:46:11;;;;;;;11.30;4.53;;;;;;;;;;5061345;28;20044;-65
2022/04/16 09:48:37;;;;;;;8.63;4.97;;;;;;;;;;5041704;28;20085;-65
2022/04/16 09:51:05;;;;;;;11.00;5.75;;;;;;;;;;5035893;28;20079;-65
2022/04/16 09:53:31;;;;;;;9.38;5.75;;;;;;;;;;5040900;28;20044;-65
2022/04/16 09:56:01;;;;;;;10.48;6.13;;;;;;;;;;5038325;28;20064;-65
2022/04/16 09:58:36;;;;;;;9.35;6.20;;;;;;;;;;5044019;28;20056;-65
2022/04/16 10:01:02;;;;;;;8.32;6.10;;;;;;;;;;5044827;28;20084;-65
2022/04/16 10:03:29;;;;;;;13.27;5.78;;;;;;;;;;5043121;28;20338;-64
2022/04/16 10:05:57;;;;;;;31.42;9.13;;;;;;;;;;5040064;28;20044;-65
2022/04/16 10:08:25;;;;;;;15.18;5.78;;;;;;;;;;5042519;28;20048;-65
2022/04/16 10:10:54;;;;;;;9.55;5.43;;;;;;;;;;5044563;28;20419;-65
2022/04/16 10:13:22;;;;;;;9.60;6.32;;;;;;;;;;5044219;28;20107;-66
2022/04/16 10:15:53;;;;;;;10.45;5.35;;;;;;;;;;5044507;28;20049;-65
2022/04/16 10:18:19;;;;;;;9.05;4.97;;;;;;;;;;5049788;28;20107;-65
2022/04/16 10:20:50;;;;;;;9.35;5.22;;;;;;;;;;5048891;28;20137;-66
2022/04/16 10:23:25;;;;;;;8.80;4.70;;;;;;;;;;5049112;28;20053;-65
2022/04/16 10:25:51;;;;;;;7.68;4.38;;;;;;;;;;5050713;28;20045;-66
2022/04/16 10:28:23;;;;;;;10.02;5.60;;;;;;;;;;5046519;28;20052;-65
2022/04/16 10:30:51;;;;;;;7.57;4.93;;;;;;;;;;5049638;28;20064;-65
2022/04/16 10:33:20;;;;;;;7.25;4.22;;;;;;;;;;5049087;28;20059;-65
2022/04/16 10:35:50;;;;;;;8.73;4.32;;;;;;;;;;5050063;28;20132;-66
2022/04/16 10:38:24;;;;;;;5.82;3.40;;;;;;;;;;5034136;28;20044;-65
2022/04/16 10:40:57;;;;;;;5.40;3.03;;;;;;;;;;5046690;28;20048;-65
2022/04/16 10:43:31;;;;;;;7.32;3.67;;;;;;;;;;5067047;28;20033;-65
2022/04/16 10:46:00;;;;;;;7.70;4.60;;;;;;;;;;5046664;28;20484;-65
2022/04/16 10:48:29;;;;;;;6.43;3.33;;;;;;;;;;5050666;28;20116;-65
2022/04/16 10:50:57;;;;;;;6.20;3.50;;;;;;;;;;5068983;28;20036;-65
2022/04/16 10:53:30;;;;;;;4.90;2.50;;;;;;;;;;5068710;28;20033;-66
2022/04/16 10:55:56;;;;;;;5.53;3.05;;;;;;;;;;5068557;28;20045;-65
2022/04/16 10:58:27;;;;;;;6.18;3.58;;;;;;;;;;5068453;28;20131;-66
2022/04/16 11:01:04;;;;;;;5.65;3.05;;;;;;;;;;5071328;28;20437;-66
2022/04/16 11:03:30;;;;;;;5.55;2.70;;;;;;;;;;5043405;28;20040;-65
2022/04/16 11:06:04;;;;;;;5.30;2.50;;;;;;;;;;5069809;28;20037;-66
2022/04/16 11:08:34;;;;;;;3.80;2.20;;;;;;;;;;5051243;28;20044;-65
2022/04/16 11:11:02;;;;;;;5.45;2.53;;;;;;;;;;5068843;28;20074;-65
2022/04/16 11:13:31;;;;;;;5.85;2.40;;;;;;;;;;5048855;28;20052;-65
2022/04/16 11:15:58;;;;;;;3.55;2.33;;;;;;;;;;5050375;28;20033;-65
2022/04/16 11:18:26;;;;;;;5.00;2.72;;;;;;;;;;5049747;28;20048;-66
2022/04/16 11:20:58;;;;;;;5.95;2.60;;;;;;;;;;5068592;28;20051;-65
2022/04/16 11:23:26;;;;;;;4.82;2.70;;;;;;;;;;5044233;28;20048;-65
2022/04/16 11:34:14;;;;;;;5.88;3.75;;;;;;;;;;5072593;28;20460;-65
2022/04/16 11:36:41;;;;;;;5.32;3.13;;;;;;;;;;5052928;28;20515;-66
2022/04/16 11:39:16;;;;;;;5.75;3.33;;;;;;;;;;5072953;28;20476;-66
2022/04/16 11:41:48;;;;;;;6.03;2.80;;;;;;;;;;5071922;28;20052;-66
2022/04/16 11:44:14;;;;;;;5.55;2.60;;;;;;;;;;5073048;28;20037;-65
2022/04/16 11:46:41;;;;;;;4.57;2.38;;;;;;;;;;5071921;28;20070;-65
2022/04/16 11:49:08;;;;;;;3.22;1.70;;;;;;;;;;5068399;28;20048;-65
2022/04/16 11:51:37;;;;;;;3.97;2.03;;;;;;;;;;5050340;28;20036;-66
2022/04/16 11:54:04;;;;;;;5.20;2.10;;;;;;;;;;5068065;28;20040;-66
2022/04/16 11:56:30;;;;;;;4.43;2.03;;;;;;;;;;5049131;28;20420;-66
2022/04/16 11:58:56;;;;;;;4.72;2.20;;;;;;;;;;5069438;28;20115;-66
2022/04/16 12:01:23;;;;;;;3.63;1.88;;;;;;;;;;5069941;28;20063;-66
2022/04/16 12:03:52;;;;;;;5.80;1.98;;;;;;;;;;5067747;28;20052;-66
2022/04/16 12:06:18;;;;;;;6.72;2.17;;;;;;;;;;5069256;28;20510;-66
2022/04/16 12:08:44;;;;;;;3.65;1.83;;;;;;;;;;5066779;28;20499;-66
2022/04/16 12:11:10;;;;;;;3.40;1.70;;;;;;;;;;5065675;28;20036;-66
2022/04/16 12:13:37;;;;;;;3.97;1.88;;;;;;;;;;5066252;28;20040;-65
2022/04/16 12:16:05;;;;;;;4.40;1.60;;;;;;;;;;5067956;28;20036;-66
2022/04/16 12:18:38;;;;;;;7.22;2.88;;;;;;;;;;5064073;28;20377;-65
2022/04/16 12:21:07;;;;;;;11.48;4.50;;;;;;;;;;5051016;28;20075;-66
2022/04/16 12:23:33;;;;;;;8.43;1.70;;;;;;;;;;5049082;28;20063;-66
2022/04/16 12:26:05;;;;;;;5.63;3.10;;;;;;;;;;5051207;28;20121;-66
2022/04/16 12:28:33;;;;;;;4.82;1.63;;;;;;;;;;5065992;28;20033;-66
2022/04/16 12:30:59;;;;;;;7.40;1.45;;;;;;;;;;5067456;28;20041;-66
2022/04/16 12:33:26;;;;;;;3.00;1.27;;;;;;;;;;5071178;28;20137;-66
2022/04/16 12:35:55;;;;;;;2.60;1.20;;;;;;;;;;5052626;28;20060;-66
2022/04/16 12:38:24;;;;;;;3.35;1.33;;;;;;;;;;5069599;28;20041;-66
2022/04/16 12:40:50;;;;;;;5.88;1.55;;;;;;;;;;5071854;28;20049;-66
2022/04/16 12:43:17;;;;;;;2.65;1.05;;;;;;;;;;5071546;28;20036;-66
2022/04/16 12:45:43;;;;;;;2.33;0.70;;;;;;;;;;5071079;28;20094;-66
2022/04/16 12:48:09;;;;;;;3.40;0.65;;;;;;;;;;5071748;28;20113;-66
2022/04/16 12:50:35;;;;;;;4.95;0.88;;;;;;;;;;5068873;28;20056;-66
2022/04/16 12:53:04;;;;;;;3.80;0.93;;;;;;;;;;5070872;28;20059;-66
2022/04/16 12:55:30;;;;;;;5.95;1.10;;;;;;;;;;5071304;28;20055;-66
2022/04/16 12:57:56;;;;;;;4.03;1.88;;;;;;;;;;5071636;28;20067;-66
2022/04/16 13:00:23;;;;;;;1.75;0.73;;;;;;;;;;5051662;28;20040;-66
2022/04/16 13:02:49;;;;;;;4.20;0.68;;;;;;;;;;5071654;28;20064;-66
2022/04/16 13:05:17;;;;;;;2.13;0.80;;;;;;;;;;5070621;28;20033;-66
2022/04/16 13:07:44;;;;;;;2.47;0.98;;;;;;;;;;5071534;28;20037;-66
2022/04/16 13:10:11;;;;;;;2.42;0.65;;;;;;;;;;5062860;28;20476;-66
2022/04/16 13:12:38;;;;;;;4.05;1.05;;;;;;;;;;5052597;28;20444;-66
2022/04/16 13:15:06;;;;;;;1.80;0.82;;;;;;;;;;5071172;28;20037;-66
2022/04/16 13:17:32;;;;;;;3.13;0.60;;;;;;;;;;5051683;28;20396;-66
2022/04/16 13:20:00;;;;;;;0.73;0.40;;;;;;;;;;5067030;28;20041;-66
2022/04/16 13:22:26;;;;;;;2.17;0.60;;;;;;;;;;5069855;28;20051;-66
2022/04/16 13:24:53;;;;;;;2.03;0.73;;;;;;;;;;5051353;28;20037;-66
2022/04/16 13:27:20;;;;;;;3.00;0.80;;;;;;;;;;5070265;28;20551;-66
2022/04/16 13:29:46;;;;;;;1.02;0.60;;;;;;;;;;5067286;28;20041;-66
2022/04/16 13:32:14;;;;;;;2.40;0.70;;;;;;;;;;5070240;28;20425;-66
2022/04/16 13:34:43;;;;;;;3.53;1.00;;;;;;;;;;5052233;28;20492;-66
2022/04/16 13:37:09;;;;;;;2.55;0.77;;;;;;;;;;5065816;28;20091;-65
2022/04/16 13:42:26;;;;;;;8.38;1.00;;;;;;;;;;5046355;28;20040;-66
2022/04/16 13:44:53;;;;;;;1.80;0.77;;;;;;;;;;5063638;28;20045;-66
2022/04/16 13:47:21;;;;;;;2.50;0.90;;;;;;;;;;5066109;28;20060;-66
2022/04/16 13:49:47;;;;;;;3.03;0.80;;;;;;;;;;5070358;28;20052;-66
2022/04/16 13:52:13;;;;;;;2.85;0.85;;;;;;;;;;5069944;28;20346;-63
2022/04/16 13:54:39;;;;;;;2.80;0.93;;;;;;;;;;5069447;28;20044;-64
2022/04/16 13:57:08;;;;;;;3.10;0.85;;;;;;;;;;5070400;28;20660;-64
2022/04/16 13:59:35;;;;;;;3.97;0.68;;;;;;;;;;5070701;28;20372;-64
2022/04/16 14:02:02;;;;;;;2.17;0.82;;;;;;;;;;5067385;28;20507;-64
2022/04/16 14:05:42;;;;;;;2.38;0.85;;;;;;;;;;5052164;28;20040;-64
2022/04/16 14:07:14;;;;;;;5.60;0.70;;;;;;;;;;5051949;28;20043;-64
2022/04/16 14:09:40;;;;;;;4.00;0.95;;;;;;;;;;5070444;28;20094;-63
2022/04/16 14:12:06;;;;;;;2.05;0.80;;;;;;;;;;5051564;28;20084;-64
2022/04/16 14:14:33;;;;;;;2.33;0.70;;;;;;;;;;5048017;28;20044;-64
2022/04/16 14:16:59;;;;;;;4.15;1.10;;;;;;;;;;5069132;28;20063;-63
2022/04/16 14:19:25;;;;;;;1.83;0.70;;;;;;;;;;5068001;28;20411;-63
2022/04/16 14:21:54;;;;;;;3.45;0.80;;;;;;;;;;5070620;28;20119;-63
2022/04/16 14:24:21;;;;;;;1.52;0.60;;;;;;;;;;5053248;28;20098;-63
2022/04/16 14:26:47;;;;;;;1.85;0.65;;;;;;;;;;5070765;28;20048;-63
2022/04/16 14:29:14;;;;;;;3.38;0.73;;;;;;;;;;5070442;28;20157;-63
2022/04/16 14:31:42;;;;;;;5.25;0.90;;;;;;;;;;5068842;28;20041;-63
2022/04/16 14:34:08;;;;;;;6.38;0.77;;;;;;;;;;5052478;28;20052;-63
2022/04/16 14:36:35;;;;;;;3.63;0.80;;;;;;;;;;5048892;28;20140;-63
2022/04/16 14:39:01;;;;;;;1.58;0.82;;;;;;;;;;5047419;28;20091;-62
2022/04/16 14:41:27;;;;;;;2.38;1.15;;;;;;;;;;5050360;28;20048;-62
2022/04/16 14:43:58;;;;;;;3.22;0.70;;;;;;;;;;5050440;28;20037;-64
2022/04/16 14:46:24;;;;;;;3.00;1.08;;;;;;;;;;5032575;28;20758;-65
2022/04/16 14:48:53;;;;;;;1.75;0.80;;;;;;;;;;5047954;28;20116;-65
2022/04/16 14:51:20;;;;;;;2.40;0.85;;;;;;;;;;5049343;28;20492;-65